Time;durP1;ratioP1;P1;durP2;ratioP2;P2;SDS_P1;SDS_P2;PMS_P1;PMS_P2;Temp;Humidity;BMP_temperature;BMP_pressure;BME280_temperature;BME280_humidity;BME280_pressure;Samples;Min_cycle;Max_cycle;Signal;HPM_P1;HPM_P2
2022/01/07 13:36:04;;;;;;;2.77;0.80;;;4.90;99.90;;;;;;3876217;22;20704;-43
2022/01/07 13:38:30;;;;;;;2.03;1.00;;;4.40;99.90;;;;;;5034110;28;20223;-44
2022/01/07 13:41:09;;;;;;;3.70;1.00;;;4.00;99.90;;;;;;5036147;28;20593;-43
2022/01/07 13:43:37;;;;;;;4.33;0.97;;;3.70;99.90;;;;;;5020164;28;20239;-44
2022/01/07 13:46:19;;;;;;;5.03;1.23;;;3.60;99.90;;;;;;5036975;28;20270;-44
2022/01/07 13:48:57;;;;;;;10.63;1.30;;;3.50;99.90;;;;;;5018153;28;20173;-45
2022/01/07 13:51:28;;;;;;;2.67;1.00;;;3.40;99.90;;;;;;5021546;28;20251;-43
2022/01/07 13:54:25;;;;;;;3.70;1.10;;;3.30;99.90;;;;;;5036940;28;20199;-45
2022/01/07 13:56:59;;;;;;;3.40;2.00;;;3.20;99.90;;;;;;5035770;28;20198;-44
2022/01/07 13:59:26;;;;;;;12.63;8.90;;;3.20;99.90;;;;;;5036700;28;20207;-45
2022/01/07 14:02:01;;;;;;;8.37;4.97;;;3.20;99.90;;;;;;5016453;28;20603;-45
2022/01/07 14:04:44;;;;;;;2.37;1.40;;;3.20;99.90;;;;;;5036529;28;20176;-44
2022/01/07 14:07:37;;;;;;;5.13;2.40;;;3.20;99.90;;;;;;5034887;28;20491;-45
2022/01/07 14:10:11;;;;;;;6.17;1.20;;;3.20;99.90;;;;;;5035011;28;20203;-45
2022/01/07 14:12:45;;;;;;;1.57;1.37;;;3.30;99.90;;;;;;5035226;28;20242;-44
2022/01/07 14:15:13;;;;;;;4.17;1.30;;;3.30;99.90;;;;;;5036714;28;20187;-45
2022/01/07 14:17:40;;;;;;;4.90;1.63;;;3.30;99.90;;;;;;5035149;28;20192;-44
2022/01/07 14:20:35;;;;;;;3.53;1.93;;;3.40;99.90;;;;;;5035358;28;20186;-45
2022/01/07 15:35:28;;;;;;;2.30;1.40;;;4.20;99.90;;;;;;5055052;28;20216;-44
2022/01/07 15:37:53;;;;;;;3.57;1.67;;;4.20;99.90;;;;;;5055255;28;20172;-44
2022/01/07 15:40:19;;;;;;;3.30;1.50;;;4.10;99.90;;;;;;5055134;28;20167;-46
2022/01/07 15:42:45;;;;;;;3.07;1.67;;;4.10;99.90;;;;;;5036491;28;20200;-44
2022/01/07 15:45:10;;;;;;;1.97;1.53;;;4.00;99.90;;;;;;5036585;28;20259;-44
2022/01/07 15:47:37;;;;;;;2.37;1.70;;;4.00;99.90;;;;;;5054852;28;20218;-44
2022/01/07 15:50:05;;;;;;;3.00;2.50;;;4.00;99.90;;;;;;5054825;28;20660;-42
2022/01/07 15:52:30;;;;;;;4.17;2.40;;;3.90;99.90;;;;;;5054335;28;20206;-42
2022/01/07 15:54:57;;;;;;;4.40;2.37;;;3.90;99.90;;;;;;5036733;28;20545;-41
2022/01/07 15:57:24;;;;;;;2.93;1.70;;;3.90;99.90;;;;;;5054332;28;20273;-45
2022/01/07 15:59:50;;;;;;;1.30;1.20;;;3.90;99.90;;;;;;5036598;28;20187;-45
2022/01/07 16:02:15;;;;;;;7.77;4.40;;;3.80;99.90;;;;;;5055087;28;20204;-45
2022/01/07 16:04:41;;;;;;;2.50;1.70;;;3.90;99.90;;;;;;5037508;28;20168;-43
2022/01/07 16:07:07;;;;;;;2.50;1.83;;;3.80;99.90;;;;;;5055447;28;20177;-46
2022/01/07 16:09:33;;;;;;;2.77;2.17;;;3.80;99.90;;;;;;5036733;28;20180;-48
2022/01/07 16:11:58;;;;;;;3.13;1.73;;;3.80;99.90;;;;;;5036113;28;20187;-44
2022/01/07 16:14:24;;;;;;;2.03;1.63;;;3.80;99.90;;;;;;5054193;28;20180;-46
2022/01/07 16:16:51;;;;;;;4.90;2.50;;;3.80;99.90;;;;;;5054252;28;20235;-48
2022/01/07 16:19:17;;;;;;;4.87;2.20;;;3.80;99.90;;;;;;5036269;28;20184;-46
2022/01/07 16:21:43;;;;;;;1.83;1.57;;;3.80;99.90;;;;;;5036374;28;20656;-47
2022/01/07 16:24:08;;;;;;;2.63;1.70;;;3.90;99.90;;;;;;5054393;28;20180;-48
2022/01/07 16:26:34;;;;;;;3.17;1.83;;;3.90;99.90;;;;;;5019586;28;20275;-47
2022/01/07 16:29:00;;;;;;;4.70;1.77;;;3.90;99.90;;;;;;5036006;28;20230;-47
2022/01/07 16:31:25;;;;;;;1.50;1.40;;;3.90;99.90;;;;;;5036238;28;20295;-47
2022/01/07 16:33:51;;;;;;;2.40;1.70;;;3.90;99.90;;;;;;5053647;28;20209;-49
2022/01/07 16:36:18;;;;;;;1.83;1.60;;;3.90;99.90;;;;;;5053883;28;20206;-49
2022/01/07 16:38:45;;;;;;;2.50;1.40;;;3.90;99.90;;;;;;5053561;28;20180;-48
2022/01/07 16:41:12;;;;;;;1.47;1.30;;;3.90;99.90;;;;;;5035821;28;20195;-47
2022/01/07 16:43:38;;;;;;;0.77;0.77;;;3.90;99.90;;;;;;5053338;28;20257;-49
2022/01/07 16:46:03;;;;;;;2.77;1.80;;;3.90;99.90;;;;;;5053455;28;20267;-48
2022/01/07 16:48:29;;;;;;;1.60;1.27;;;3.90;99.90;;;;;;5054566;28;20184;-47
2022/01/07 16:50:56;;;;;;;2.90;1.20;;;4.00;99.90;;;;;;5053481;28;20204;-48
2022/01/07 16:53:22;;;;;;;2.90;1.47;;;4.00;99.90;;;;;;5052639;28;20242;-48
2022/01/07 16:55:48;;;;;;;6.83;2.60;;;4.00;99.90;;;;;;5035736;28;20184;-46
2022/01/07 16:58:15;;;;;;;4.93;1.50;;;4.00;99.90;;;;;;5053385;28;20192;-46
2022/01/07 17:00:42;;;;;;;4.03;1.73;;;4.00;99.90;;;;;;5035474;28;20648;-48
2022/01/07 17:03:15;;;;;;;3.40;1.90;;;4.00;99.90;;;;;;5035528;28;20257;-49
2022/01/07 17:05:42;;;;;;;1.53;1.43;;;3.90;99.90;;;;;;5046815;28;20204;-48
2022/01/07 17:08:09;;;;;;;1.57;1.43;;;3.90;99.90;;;;;;5053594;28;20256;-49
2022/01/07 17:10:39;;;;;;;2.63;1.60;;;3.90;99.90;;;;;;5035407;28;20299;-49
2022/01/07 17:13:06;;;;;;;1.83;1.37;;;3.80;99.90;;;;;;5053177;28;20687;-49
2022/01/07 17:15:33;;;;;;;1.90;1.63;;;3.80;99.90;;;;;;5018987;28;20183;-48
2022/01/07 17:17:59;;;;;;;1.40;1.07;;;3.70;99.90;;;;;;5053186;28;20184;-49
2022/01/07 17:20:25;;;;;;;2.33;1.47;;;3.70;99.90;;;;;;5035248;28;20187;-47
2022/01/07 17:22:51;;;;;;;1.60;1.00;;;3.60;99.90;;;;;;5035681;28;20204;-48
2022/01/07 17:25:18;;;;;;;3.93;1.73;;;3.50;99.90;;;;;;5053009;28;20180;-48
2022/01/07 17:27:47;;;;;;;3.50;1.33;;;3.50;99.90;;;;;;5035218;28;20189;-48
2022/01/07 17:30:16;;;;;;;1.20;1.10;;;3.40;99.90;;;;;;5053050;28;20211;-48
2022/01/07 17:32:42;;;;;;;2.10;1.40;;;3.40;99.90;;;;;;5035084;28;20204;-48
2022/01/07 17:35:09;;;;;;;2.00;1.63;;;3.30;99.90;;;;;;5053300;28;20177;-47
2022/01/07 17:37:47;;;;;;;1.43;1.13;;;3.30;99.90;;;;;;5035263;28;20330;-45
2022/01/07 17:40:38;;;;;;;1.90;1.50;;;3.20;99.90;;;;;;5034968;28;20214;-48
2022/01/07 17:43:34;;;;;;;1.87;1.70;;;3.20;99.90;;;;;;5019562;28;20212;-45
2022/01/07 17:46:25;;;;;;;2.77;1.87;;;3.10;99.90;;;;;;5050824;28;20648;-44
2022/01/07 18:57:44;;;;;;;4.77;2.60;;;2.50;99.90;;;;;;1501341;26;20342;-45
2022/01/07 19:00:11;;;;;;;4.73;2.80;;;2.50;99.90;;;;;;5078306;28;20269;-46
2022/01/07 19:02:46;;;;;;;5.77;3.17;;;2.50;99.90;;;;;;5096142;28;20201;-46
2022/01/07 19:05:12;;;;;;;3.97;2.77;;;2.50;99.90;;;;;;5077378;28;20224;-46
2022/01/07 19:07:38;;;;;;;6.43;3.17;;;2.40;99.90;;;;;;5095444;28;20181;-46
2022/01/07 19:10:24;;;;;;;4.63;2.80;;;2.40;99.90;;;;;;5095189;28;20606;-46
2022/01/07 19:13:04;;;;;;;3.83;2.40;;;2.40;99.90;;;;;;5095105;28;20197;-45
2022/01/07 19:15:49;;;;;;;7.30;2.70;;;2.40;99.90;;;;;;5094981;28;20173;-45
2022/01/07 19:18:22;;;;;;;3.43;2.90;;;2.40;99.90;;;;;;5094157;28;20166;-45
2022/01/07 19:20:53;;;;;;;7.13;2.30;;;2.40;99.90;;;;;;5095433;28;20162;-45
2022/01/07 19:23:19;;;;;;;4.30;2.30;;;2.40;99.90;;;;;;5095231;28;20300;-45
2022/01/07 19:25:45;;;;;;;3.10;2.63;;;2.40;99.90;;;;;;5095083;28;20250;-44
2022/01/07 19:28:10;;;;;;;8.53;2.67;;;2.40;99.90;;;;;;5094214;28;20207;-44
2022/01/07 19:30:37;;;;;;;3.50;2.50;;;2.50;99.90;;;;;;5094716;28;20763;-43
2022/01/07 19:33:03;;;;;;;3.57;2.40;;;2.50;99.90;;;;;;5094845;28;20289;-44
2022/01/07 19:35:30;;;;;;;10.00;2.93;;;2.50;99.90;;;;;;5094773;28;20256;-43
2022/01/07 19:37:57;;;;;;;4.23;2.87;;;2.50;99.90;;;;;;5094994;28;20242;-43
2022/01/07 19:40:23;;;;;;;6.50;2.63;;;2.50;99.90;;;;;;5095063;28;20178;-44
2022/01/07 19:42:49;;;;;;;4.20;2.57;;;2.40;99.90;;;;;;5094683;28;20259;-44
2022/01/07 19:45:15;;;;;;;6.30;2.47;;;2.50;99.90;;;;;;5095828;28;20203;-42
2022/01/07 19:47:40;;;;;;;4.43;2.27;;;2.50;99.90;;;;;;5095257;28;20186;-45
2022/01/07 19:50:06;;;;;;;5.33;2.23;;;2.50;99.90;;;;;;5094725;28;20174;-44
2022/01/07 19:52:34;;;;;;;6.50;2.20;;;2.40;99.90;;;;;;5094643;28;20741;-44
2022/01/07 19:55:00;;;;;;;4.50;2.17;;;2.50;99.90;;;;;;5094584;28;20170;-42
2022/01/07 19:57:25;;;;;;;3.07;2.07;;;2.50;99.90;;;;;;5094398;28;20231;-43
2022/01/07 19:59:51;;;;;;;7.20;2.50;;;2.50;99.90;;;;;;5094526;28;20170;-43
2022/01/07 20:02:16;;;;;;;5.03;2.17;;;2.50;99.90;;;;;;5094799;28;20237;-44
2022/01/07 20:04:42;;;;;;;4.07;2.27;;;2.50;99.90;;;;;;5094550;28;20524;-43
2022/01/07 20:07:08;;;;;;;2.33;1.60;;;2.50;99.90;;;;;;5094507;28;20173;-44
2022/01/07 20:09:34;;;;;;;5.33;2.30;;;2.60;99.90;;;;;;5094484;28;20238;-44
2022/01/07 20:12:01;;;;;;;3.07;2.20;;;2.60;99.90;;;;;;5094341;28;20198;-43
2022/01/07 20:14:27;;;;;;;5.27;2.40;;;2.60;99.90;;;;;;5094229;28;20182;-45
2022/01/07 20:16:53;;;;;;;2.90;1.93;;;2.60;99.90;;;;;;5075906;28;20181;-43
2022/01/07 20:19:18;;;;;;;4.77;2.20;;;2.70;99.90;;;;;;5094299;28;20250;-44
2022/01/07 20:21:44;;;;;;;4.03;1.77;;;2.70;99.90;;;;;;5093923;28;20178;-43
2022/01/07 20:24:09;;;;;;;4.87;2.43;;;2.70;99.90;;;;;;5094223;28;20177;-43
2022/01/07 20:26:35;;;;;;;6.63;2.60;;;2.70;99.90;;;;;;5094290;28;20649;-45
2022/01/07 20:29:01;;;;;;;6.03;3.10;;;2.70;99.90;;;;;;5093221;28;20192;-43
2022/01/07 20:31:26;;;;;;;3.80;2.40;;;2.80;99.90;;;;;;5093903;28;20206;-43
2022/01/07 20:33:52;;;;;;;4.50;2.60;;;2.80;99.90;;;;;;5093869;28;20201;-43
2022/01/07 20:36:18;;;;;;;4.63;2.30;;;2.70;99.90;;;;;;5094068;28;20177;-45
2022/01/07 20:38:44;;;;;;;3.87;2.33;;;2.70;99.90;;;;;;5093867;28;20561;-44
2022/01/07 20:41:10;;;;;;;4.90;2.20;;;2.70;99.90;;;;;;5094058;28;20547;-44
2022/01/07 20:43:36;;;;;;;6.90;2.60;;;2.80;99.90;;;;;;5093829;28;20205;-45
2022/01/07 20:46:03;;;;;;;3.97;2.43;;;2.80;99.90;;;;;;5093696;28;20230;-45
2022/01/07 20:48:29;;;;;;;10.13;2.87;;;2.80;99.90;;;;;;5093668;28;20635;-44
2022/01/07 20:50:55;;;;;;;3.43;2.40;;;2.80;99.90;;;;;;5093473;28;20212;-43
2022/01/07 20:53:22;;;;;;;8.77;2.67;;;2.80;99.90;;;;;;5093602;28;20226;-44
2022/01/07 20:55:47;;;;;;;5.50;2.60;;;2.80;99.90;;;;;;5093470;28;20173;-44
2022/01/07 20:58:13;;;;;;;2.57;2.37;;;2.80;99.90;;;;;;5093398;28;20193;-44
2022/01/07 21:00:39;;;;;;;4.97;2.33;;;2.80;99.90;;;;;;5093721;28;20185;-44
2022/01/07 21:03:04;;;;;;;6.50;2.70;;;2.80;99.90;;;;;;5075665;28;20715;-45
2022/01/07 21:05:30;;;;;;;4.17;2.40;;;2.80;99.90;;;;;;5075301;28;20185;-45
2022/01/07 21:07:56;;;;;;;5.17;2.60;;;2.80;99.90;;;;;;5094085;28;20188;-44
2022/01/07 21:10:22;;;;;;;5.87;2.90;;;2.90;99.90;;;;;;5075541;28;20660;-45
2022/01/07 21:12:48;;;;;;;7.43;2.50;;;2.80;99.90;;;;;;5093723;28;20194;-44
2022/01/07 21:15:14;;;;;;;5.43;2.77;;;2.80;99.90;;;;;;5093343;28;20236;-45
2022/01/07 21:17:40;;;;;;;8.13;2.87;;;2.80;99.90;;;;;;5093609;28;20544;-43
2022/01/07 21:20:07;;;;;;;5.17;3.60;;;2.80;99.90;;;;;;5093651;28;20174;-44
2022/01/07 21:22:33;;;;;;;6.73;2.50;;;2.80;99.90;;;;;;5093252;28;20219;-44
2022/01/07 21:24:59;;;;;;;5.40;2.60;;;2.80;99.90;;;;;;5093383;28;20196;-43
2022/01/07 21:27:24;;;;;;;5.00;2.60;;;2.80;99.90;;;;;;5093452;28;20170;-44
2022/01/07 21:29:50;;;;;;;5.93;2.63;;;2.90;99.90;;;;;;5093142;28;20713;-43
2022/01/07 21:32:16;;;;;;;4.13;2.60;;;2.80;99.90;;;;;;5093048;28;20283;-43
2022/01/07 21:34:42;;;;;;;7.43;3.23;;;2.80;99.90;;;;;;5093726;28;20212;-42
2022/01/07 21:37:08;;;;;;;8.40;2.60;;;2.90;99.90;;;;;;5093387;28;20187;-43
2022/01/07 21:39:33;;;;;;;5.30;2.50;;;2.90;99.90;;;;;;5094293;28;20189;-44
2022/01/07 21:41:59;;;;;;;6.77;2.57;;;2.90;99.90;;;;;;5079240;28;20206;-43
2022/01/07 21:44:25;;;;;;;6.13;2.77;;;2.90;99.90;;;;;;5097190;28;20261;-43
2022/01/07 21:46:50;;;;;;;2.83;2.20;;;2.90;99.90;;;;;;5097051;28;20185;-43
2022/01/07 21:49:16;;;;;;;6.23;3.00;;;2.90;99.90;;;;;;5097269;28;20536;-44
2022/01/07 21:51:42;;;;;;;4.33;2.60;;;2.90;99.90;;;;;;5096807;28;20614;-44
2022/01/07 21:54:07;;;;;;;6.43;2.70;;;2.90;99.90;;;;;;5097659;28;20177;-46
2022/01/07 21:56:37;;;;;;;5.67;2.87;;;2.90;99.90;;;;;;5097464;28;20617;-43
2022/01/07 21:59:04;;;;;;;7.67;3.43;;;2.90;99.90;;;;;;5095810;28;20218;-43
2022/01/07 22:01:33;;;;;;;5.73;2.73;;;2.90;99.90;;;;;;5095462;28;20182;-44
2022/01/07 22:04:00;;;;;;;5.43;2.90;;;2.90;99.90;;;;;;5095405;28;20225;-42
2022/01/07 22:06:43;;;;;;;5.37;2.80;;;2.90;99.90;;;;;;5095338;28;20208;-43
2022/01/07 22:09:09;;;;;;;8.43;2.73;;;2.90;99.90;;;;;;5095635;28;20201;-43
2022/01/07 22:11:35;;;;;;;4.73;2.40;;;2.80;99.90;;;;;;5095396;28;20244;-42
2022/01/07 22:14:02;;;;;;;5.53;2.70;;;2.80;99.90;;;;;;5095176;28;20198;-44
2022/01/07 22:16:29;;;;;;;7.27;2.77;;;2.90;99.90;;;;;;5095422;28;20182;-43
2022/01/07 22:18:54;;;;;;;7.10;3.03;;;2.80;99.90;;;;;;5095291;28;20545;-43
2022/01/07 22:21:20;;;;;;;5.83;3.03;;;2.80;99.90;;;;;;5095366;28;20186;-43
2022/01/07 22:23:46;;;;;;;9.80;3.30;;;2.70;99.90;;;;;;5095199;28;20250;-42
2022/01/07 22:26:13;;;;;;;7.13;3.20;;;2.70;99.90;;;;;;5095488;28;20209;-44
2022/01/07 22:28:39;;;;;;;5.30;3.03;;;2.70;99.90;;;;;;5095476;28;20648;-45
2022/01/07 22:31:05;;;;;;;6.87;3.17;;;2.70;99.90;;;;;;5095612;28;20191;-42
2022/01/07 22:33:30;;;;;;;9.37;3.60;;;2.70;99.90;;;;;;5095153;28;20660;-42
2022/01/07 22:35:56;;;;;;;6.20;3.37;;;2.60;99.90;;;;;;5077034;28;20168;-44
2022/01/07 22:38:22;;;;;;;5.80;3.53;;;2.70;99.90;;;;;;5095457;28;20566;-44
2022/01/07 22:40:47;;;;;;;7.57;4.00;;;2.60;99.90;;;;;;5095284;28;20196;-45
2022/01/07 22:43:13;;;;;;;6.33;4.17;;;2.60;99.90;;;;;;5094797;28;20602;-43
2022/01/07 22:45:39;;;;;;;9.53;4.30;;;2.60;99.90;;;;;;5094885;28;20199;-44
2022/01/07 22:48:05;;;;;;;6.60;3.43;;;2.60;99.90;;;;;;5094720;28;20226;-44
2022/01/07 22:50:31;;;;;;;8.97;3.67;;;2.70;99.90;;;;;;5093929;28;20205;-45
2022/01/07 22:52:56;;;;;;;7.17;3.43;;;2.70;99.90;;;;;;5094093;28;20609;-44
2022/01/07 22:55:22;;;;;;;7.47;3.40;;;2.70;99.90;;;;;;5076489;28;20196;-43
2022/01/07 22:57:48;;;;;;;4.37;2.80;;;2.70;99.90;;;;;;5052871;28;1196589;-42
2022/01/07 23:00:25;;;;;;;6.30;3.17;;;2.70;99.90;;;;;;5096168;28;20175;-43
2022/01/07 23:02:56;;;;;;;5.07;2.40;;;2.70;99.90;;;;;;5096330;28;20427;-46
2022/01/07 23:05:22;;;;;;;8.07;3.53;;;2.70;99.90;;;;;;5078227;28;20498;-44
2022/01/07 23:07:48;;;;;;;10.50;3.00;;;2.70;99.90;;;;;;5095907;28;20180;-46
2022/01/07 23:10:14;;;;;;;9.10;2.77;;;2.70;99.90;;;;;;5077624;28;20264;-45
2022/01/07 23:12:40;;;;;;;7.07;2.87;;;2.70;99.90;;;;;;5096119;28;20251;-44
2022/01/07 23:15:07;;;;;;;6.20;2.60;;;2.70;99.90;;;;;;5095920;28;20182;-44
2022/01/07 23:17:39;;;;;;;4.80;2.30;;;2.70;99.90;;;;;;5095598;28;20631;-44
2022/01/07 23:20:09;;;;;;;6.70;2.90;;;2.70;99.90;;;;;;5095892;28;20167;-45
2022/01/07 23:22:34;;;;;;;5.80;2.60;;;2.70;99.90;;;;;;5096099;28;20202;-46
2022/01/07 23:25:00;;;;;;;7.23;2.83;;;2.70;99.90;;;;;;5095729;28;20598;-44
2022/01/07 23:27:27;;;;;;;6.63;3.13;;;2.70;99.90;;;;;;5095718;28;20227;-44
2022/01/07 23:29:53;;;;;;;4.73;2.90;;;2.60;99.90;;;;;;5095612;28;20235;-46
2022/01/07 23:32:19;;;;;;;9.87;2.93;;;2.70;99.90;;;;;;5095433;28;20693;-45
2022/01/07 23:34:44;;;;;;;7.57;2.60;;;2.70;99.90;;;;;;5095900;28;20234;-44
2022/01/07 23:37:10;;;;;;;5.43;2.47;;;2.70;99.90;;;;;;5077310;28;20248;-44
2022/01/07 23:39:36;;;;;;;4.07;2.23;;;2.70;99.90;;;;;;5095521;28;20301;-44
2022/01/07 23:42:03;;;;;;;10.33;2.70;;;2.70;99.90;;;;;;5095032;28;20199;-45
2022/01/07 23:44:29;;;;;;;4.43;2.43;;;2.70;99.90;;;;;;5095893;28;20201;-44
2022/01/07 23:46:54;;;;;;;5.37;2.20;;;2.70;99.90;;;;;;5076647;28;20278;-44
2022/01/07 23:49:20;;;;;;;5.23;2.07;;;2.70;99.90;;;;;;5094706;28;20187;-44
2022/01/07 23:51:45;;;;;;;4.07;1.80;;;2.70;99.90;;;;;;5094908;28;20209;-45
2022/01/07 23:54:11;;;;;;;4.80;2.13;;;2.70;99.90;;;;;;5095145;28;20266;-44
2022/01/07 23:56:37;;;;;;;4.30;2.33;;;2.70;99.90;;;;;;5094590;28;20169;-45
2022/01/07 23:59:02;;;;;;;10.03;2.20;;;2.70;99.90;;;;;;5094414;28;20276;-45
